sensor_id;sensor_type;location;lat;lon;timestamp;temperature;humidity
3816;DHT22;1923;48.154;11.536;2023-07-13T00:00:04;20.60;99.90
3816;DHT22;1923;48.154;11.536;2023-07-13T00:02:35;20.50;99.90
3816;DHT22;1923;48.154;11.536;2023-07-13T00:05:04;20.50;99.90
3816;DHT22;1923;48.154;11.536;2023-07-13T00:07:33;20.50;99.90
3816;DHT22;1923;48.154;11.536;2023-07-13T00:10:02;20.60;99.90
3816;DHT22;1923;48.154;11.536;2023-07-13T00:12:33;20.60;99.90
3816;DHT22;1923;48.154;11.536;2023-07-13T00:15:06;20.50;99.90
3816;DHT22;1923;48.154;11.536;2023-07-13T00:17:34;20.60;99.90
3816;DHT22;1923;48.154;11.536;2023-07-13T00:20:06;20.60;99.90
3816;DHT22;1923;48.154;11.536;2023-07-13T00:22:35;20.70;99.90
3816;DHT22;1923;48.154;11.536;2023-07-13T00:25:03;20.70;99.90
3816;DHT22;1923;48.154;11.536;2023-07-13T00:27:32;20.60;99.90
3816;DHT22;1923;48.154;11.536;2023-07-13T00:30:02;20.60;99.90
3816;DHT22;1923;48.154;11.536;2023-07-13T00:32:30;20.70;99.90
3816;DHT22;1923;48.154;11.536;2023-07-13T00:34:58;20.70;99.90
3816;DHT22;1923;48.154;11.536;2023-07-13T00:37:27;20.70;99.90
3816;DHT22;1923;48.154;11.536;2023-07-13T00:39:55;20.70;99.90
3816;DHT22;1923;48.154;11.536;2023-07-13T00:42:23;20.70;99.90
3816;DHT22;1923;48.154;11.536;2023-07-13T00:45:06;20.70;99.90
3816;DHT22;1923;48.154;11.536;2023-07-13T00:47:34;20.70;99.90
3816;DHT22;1923;48.154;11.536;2023-07-13T00:50:04;20.70;99.90
3816;DHT22;1923;48.154;11.536;2023-07-13T00:52:33;20.70;99.90
3816;DHT22;1923;48.154;11.536;2023-07-13T00:55:03;20.70;99.90
3816;DHT22;1923;48.154;11.536;2023-07-13T00:57:32;20.70;99.90
3816;DHT22;1923;48.154;11.536;2023-07-13T01:00:04;20.60;99.90
3816;DHT22;1923;48.154;11.536;2023-07-13T01:02:34;20.60;99.90
3816;DHT22;1923;48.154;11.536;2023-07-13T01:05:08;20.60;99.90
3816;DHT22;1923;48.154;11.536;2023-07-13T01:07:37;20.50;99.90
3816;DHT22;1923;48.154;11.536;2023-07-13T01:10:06;20.60;99.90
3816;DHT22;1923;48.154;11.536;2023-07-13T01:12:34;20.60;99.90
3816;DHT22;1923;48.154;11.536;2023-07-13T01:15:05;20.60;99.90
3816;DHT22;1923;48.154;11.536;2023-07-13T01:17:34;20.50;99.90
3816;DHT22;1923;48.154;11.536;2023-07-13T01:20:02;20.40;99.90
3816;DHT22;1923;48.154;11.536;2023-07-13T01:22:33;20.50;99.90
3816;DHT22;1923;48.154;11.536;2023-07-13T01:25:01;20.50;99.90
3816;DHT22;1923;48.154;11.536;2023-07-13T01:27:29;20.40;99.90
3816;DHT22;1923;48.154;11.536;2023-07-13T01:29:58;20.40;99.90
3816;DHT22;1923;48.154;11.536;2023-07-13T01:32:30;20.40;99.90
3816;DHT22;1923;48.154;11.536;2023-07-13T01:34:59;20.50;99.90
3816;DHT22;1923;48.154;11.536;2023-07-13T01:37:28;20.60;99.90
3816;DHT22;1923;48.154;11.536;2023-07-13T01:40:05;20.60;99.90
3816;DHT22;1923;48.154;11.536;2023-07-13T01:42:35;20.70;99.90
3816;DHT22;1923;48.154;11.536;2023-07-13T01:45:03;20.70;99.90
3816;DHT22;1923;48.154;11.536;2023-07-13T01:47:32;20.70;99.90
3816;DHT22;1923;48.154;11.536;2023-07-13T01:50:00;20.60;99.90
3816;DHT22;1923;48.154;11.536;2023-07-13T01:52:28;20.60;99.90
3816;DHT22;1923;48.154;11.536;2023-07-13T01:54:56;20.50;99.90
3816;DHT22;1923;48.154;11.536;2023-07-13T01:57:25;20.50;99.90
3816;DHT22;1923;48.154;11.536;2023-07-13T01:59:54;20.40;99.90
3816;DHT22;1923;48.154;11.536;2023-07-13T02:02:22;20.40;99.90
3816;DHT22;1923;48.154;11.536;2023-07-13T02:04:50;20.40;99.90
3816;DHT22;1923;48.154;11.536;2023-07-13T02:07:18;20.50;99.90
3816;DHT22;1923;48.154;11.536;2023-07-13T02:09:46;20.50;99.90
3816;DHT22;1923;48.154;11.536;2023-07-13T02:12:15;20.40;99.90
3816;DHT22;1923;48.154;11.536;2023-07-13T02:14:44;20.50;99.90
3816;DHT22;1923;48.154;11.536;2023-07-13T02:17:12;20.50;99.90
3816;DHT22;1923;48.154;11.536;2023-07-13T02:19:40;20.50;99.90
3816;DHT22;1923;48.154;11.536;2023-07-13T02:22:08;20.50;99.90
3816;DHT22;1923;48.154;11.536;2023-07-13T02:24:37;20.50;99.90
3816;DHT22;1923;48.154;11.536;2023-07-13T02:27:05;20.50;99.90
3816;DHT22;1923;48.154;11.536;2023-07-13T02:29:33;20.60;99.90
3816;DHT22;1923;48.154;11.536;2023-07-13T02:32:03;20.60;99.90
3816;DHT22;1923;48.154;11.536;2023-07-13T02:34:31;20.60;99.90
3816;DHT22;1923;48.154;11.536;2023-07-13T02:37:00;20.60;99.90
3816;DHT22;1923;48.154;11.536;2023-07-13T02:39:28;20.60;99.90
3816;DHT22;1923;48.154;11.536;2023-07-13T02:41:56;20.50;99.90
3816;DHT22;1923;48.154;11.536;2023-07-13T02:44:24;20.50;99.90
3816;DHT22;1923;48.154;11.536;2023-07-13T02:46:52;20.40;99.90
3816;DHT22;1923;48.154;11.536;2023-07-13T02:49:22;20.30;99.90
3816;DHT22;1923;48.154;11.536;2023-07-13T02:51:50;20.40;99.90
3816;DHT22;1923;48.154;11.536;2023-07-13T02:54:18;20.30;99.90
3816;DHT22;1923;48.154;11.536;2023-07-13T02:56:47;20.10;99.90
3816;DHT22;1923;48.154;11.536;2023-07-13T02:59:15;20.10;99.90
3816;DHT22;1923;48.154;11.536;2023-07-13T03:01:43;19.90;99.90
3816;DHT22;1923;48.154;11.536;2023-07-13T03:04:11;19.80;99.90
3816;DHT22;1923;48.154;11.536;2023-07-13T03:06:40;19.80;99.90
3816;DHT22;1923;48.154;11.536;2023-07-13T03:09:08;19.60;99.90
3816;DHT22;1923;48.154;11.536;2023-07-13T03:11:37;19.50;99.90
3816;DHT22;1923;48.154;11.536;2023-07-13T03:14:05;19.40;99.90
3816;DHT22;1923;48.154;11.536;2023-07-13T03:16:33;19.50;99.90
3816;DHT22;1923;48.154;11.536;2023-07-13T03:19:01;19.50;99.90
3816;DHT22;1923;48.154;11.536;2023-07-13T03:21:29;19.50;99.90
3816;DHT22;1923;48.154;11.536;2023-07-13T03:23:58;19.40;99.90
3816;DHT22;1923;48.154;11.536;2023-07-13T03:26:26;19.50;99.90
3816;DHT22;1923;48.154;11.536;2023-07-13T03:28:54;19.40;99.90
3816;DHT22;1923;48.154;11.536;2023-07-13T03:31:28;19.40;99.90
3816;DHT22;1923;48.154;11.536;2023-07-13T03:33:57;19.40;99.90
3816;DHT22;1923;48.154;11.536;2023-07-13T03:36:26;19.40;99.90
3816;DHT22;1923;48.154;11.536;2023-07-13T03:38:59;19.40;99.90
3816;DHT22;1923;48.154;11.536;2023-07-13T03:41:28;19.40;99.90
3816;DHT22;1923;48.154;11.536;2023-07-13T03:43:56;19.40;99.90
3816;DHT22;1923;48.154;11.536;2023-07-13T03:46:24;19.40;99.90
3816;DHT22;1923;48.154;11.536;2023-07-13T03:48:52;19.40;99.90
3816;DHT22;1923;48.154;11.536;2023-07-13T03:51:21;19.40;99.90
3816;DHT22;1923;48.154;11.536;2023-07-13T03:53:49;19.40;99.90
3816;DHT22;1923;48.154;11.536;2023-07-13T03:56:19;19.30;99.90
3816;DHT22;1923;48.154;11.536;2023-07-13T03:58:48;19.30;99.90
3816;DHT22;1923;48.154;11.536;2023-07-13T04:01:19;19.30;99.90
3816;DHT22;1923;48.154;11.536;2023-07-13T04:03:47;19.20;99.90
3816;DHT22;1923;48.154;11.536;2023-07-13T04:06:17;19.10;99.90
3816;DHT22;1923;48.154;11.536;2023-07-13T04:08:49;19.20;99.90
3816;DHT22;1923;48.154;11.536;2023-07-13T04:11:21;19.20;99.90
3816;DHT22;1923;48.154;11.536;2023-07-13T04:13:50;19.10;99.90
3816;DHT22;1923;48.154;11.536;2023-07-13T04:16:19;19.10;99.90
3816;DHT22;1923;48.154;11.536;2023-07-13T04:18:48;19.10;99.90
3816;DHT22;1923;48.154;11.536;2023-07-13T04:21:17;19.10;99.90
3816;DHT22;1923;48.154;11.536;2023-07-13T04:23:45;19.10;99.90
3816;DHT22;1923;48.154;11.536;2023-07-13T04:26:13;19.10;99.90
3816;DHT22;1923;48.154;11.536;2023-07-13T04:28:42;19.00;99.90
3816;DHT22;1923;48.154;11.536;2023-07-13T04:31:10;19.10;99.90
3816;DHT22;1923;48.154;11.536;2023-07-13T04:33:38;19.10;99.90
3816;DHT22;1923;48.154;11.536;2023-07-13T04:36:08;19.10;99.90
3816;DHT22;1923;48.154;11.536;2023-07-13T04:38:37;19.10;99.90
3816;DHT22;1923;48.154;11.536;2023-07-13T04:41:07;19.10;99.90
3816;DHT22;1923;48.154;11.536;2023-07-13T04:43:36;19.10;99.90
3816;DHT22;1923;48.154;11.536;2023-07-13T04:46:07;19.10;99.90
3816;DHT22;1923;48.154;11.536;2023-07-13T04:48:37;19.10;99.90
3816;DHT22;1923;48.154;11.536;2023-07-13T04:51:05;19.20;99.90
3816;DHT22;1923;48.154;11.536;2023-07-13T04:53:34;19.10;99.90
3816;DHT22;1923;48.154;11.536;2023-07-13T04:56:02;19.20;99.90
3816;DHT22;1923;48.154;11.536;2023-07-13T04:58:31;19.20;99.90
3816;DHT22;1923;48.154;11.536;2023-07-13T05:01:00;19.30;99.90
3816;DHT22;1923;48.154;11.536;2023-07-13T05:03:30;19.40;99.90
3816;DHT22;1923;48.154;11.536;2023-07-13T05:06:01;19.40;99.90
3816;DHT22;1923;48.154;11.536;2023-07-13T05:08:30;19.50;99.90
3816;DHT22;1923;48.154;11.536;2023-07-13T05:10:59;19.50;99.90
3816;DHT22;1923;48.154;11.536;2023-07-13T05:13:27;19.50;99.90
3816;DHT22;1923;48.154;11.536;2023-07-13T05:15:58;19.60;99.90
3816;DHT22;1923;48.154;11.536;2023-07-13T05:18:26;19.70;99.90
3816;DHT22;1923;48.154;11.536;2023-07-13T05:20:59;19.70;99.90
3816;DHT22;1923;48.154;11.536;2023-07-13T05:23:28;19.60;99.90
3816;DHT22;1923;48.154;11.536;2023-07-13T05:25:57;19.60;99.90
3816;DHT22;1923;48.154;11.536;2023-07-13T05:28:25;19.60;99.90
3816;DHT22;1923;48.154;11.536;2023-07-13T05:30:55;19.50;99.90
3816;DHT22;1923;48.154;11.536;2023-07-13T05:33:24;19.50;99.90
3816;DHT22;1923;48.154;11.536;2023-07-13T05:35:52;19.50;99.90
3816;DHT22;1923;48.154;11.536;2023-07-13T05:38:22;19.50;99.90
3816;DHT22;1923;48.154;11.536;2023-07-13T05:40:50;19.60;99.90
3816;DHT22;1923;48.154;11.536;2023-07-13T05:43:18;19.60;99.90
3816;DHT22;1923;48.154;11.536;2023-07-13T05:45:46;19.60;99.90
3816;DHT22;1923;48.154;11.536;2023-07-13T05:48:15;19.60;99.90
3816;DHT22;1923;48.154;11.536;2023-07-13T05:50:43;19.60;99.90
3816;DHT22;1923;48.154;11.536;2023-07-13T05:53:12;19.70;99.90
3816;DHT22;1923;48.154;11.536;2023-07-13T05:55:43;19.80;99.90
3816;DHT22;1923;48.154;11.536;2023-07-13T05:58:14;20.00;99.90
3816;DHT22;1923;48.154;11.536;2023-07-13T06:00:42;20.10;99.90
3816;DHT22;1923;48.154;11.536;2023-07-13T06:03:10;20.30;99.90
3816;DHT22;1923;48.154;11.536;2023-07-13T06:05:39;20.30;99.90
3816;DHT22;1923;48.154;11.536;2023-07-13T06:08:07;20.40;99.90
3816;DHT22;1923;48.154;11.536;2023-07-13T06:10:36;20.50;99.90
3816;DHT22;1923;48.154;11.536;2023-07-13T06:13:06;20.60;99.90
3816;DHT22;1923;48.154;11.536;2023-07-13T06:15:34;20.60;99.90
3816;DHT22;1923;48.154;11.536;2023-07-13T06:18:02;20.60;99.90
3816;DHT22;1923;48.154;11.536;2023-07-13T06:20:33;20.70;99.90
3816;DHT22;1923;48.154;11.536;2023-07-13T06:23:01;20.80;99.90
3816;DHT22;1923;48.154;11.536;2023-07-13T06:25:30;21.00;99.90
3816;DHT22;1923;48.154;11.536;2023-07-13T06:27:58;21.20;99.90
3816;DHT22;1923;48.154;11.536;2023-07-13T06:30:27;21.40;99.90
3816;DHT22;1923;48.154;11.536;2023-07-13T06:32:55;21.60;99.90
3816;DHT22;1923;48.154;11.536;2023-07-13T06:35:23;21.60;99.90
3816;DHT22;1923;48.154;11.536;2023-07-13T06:37:52;21.80;99.90
3816;DHT22;1923;48.154;11.536;2023-07-13T06:40:20;22.00;99.90
3816;DHT22;1923;48.154;11.536;2023-07-13T06:42:48;22.00;99.90
3816;DHT22;1923;48.154;11.536;2023-07-13T06:45:16;21.80;99.90
3816;DHT22;1923;48.154;11.536;2023-07-13T06:47:45;21.80;99.90
3816;DHT22;1923;48.154;11.536;2023-07-13T06:50:14;21.80;99.90
3816;DHT22;1923;48.154;11.536;2023-07-13T06:52:42;21.80;99.90
3816;DHT22;1923;48.154;11.536;2023-07-13T06:55:10;21.80;99.90
3816;DHT22;1923;48.154;11.536;2023-07-13T06:57:38;21.90;99.90
3816;DHT22;1923;48.154;11.536;2023-07-13T07:00:07;21.90;99.90
3816;DHT22;1923;48.154;11.536;2023-07-13T07:02:36;21.90;99.90
3816;DHT22;1923;48.154;11.536;2023-07-13T07:05:06;22.00;99.90
3816;DHT22;1923;48.154;11.536;2023-07-13T07:07:34;22.10;99.90
3816;DHT22;1923;48.154;11.536;2023-07-13T07:10:03;22.20;99.90
3816;DHT22;1923;48.154;11.536;2023-07-13T07:12:31;22.30;99.90
3816;DHT22;1923;48.154;11.536;2023-07-13T07:14:59;22.20;99.90
3816;DHT22;1923;48.154;11.536;2023-07-13T07:17:27;22.30;99.90
3816;DHT22;1923;48.154;11.536;2023-07-13T07:19:56;22.30;99.90
3816;DHT22;1923;48.154;11.536;2023-07-13T07:22:25;22.30;99.90
3816;DHT22;1923;48.154;11.536;2023-07-13T07:24:54;22.30;99.90
3816;DHT22;1923;48.154;11.536;2023-07-13T07:27:23;22.30;99.90
3816;DHT22;1923;48.154;11.536;2023-07-13T07:29:53;22.30;99.90
3816;DHT22;1923;48.154;11.536;2023-07-13T07:32:42;22.40;99.90
3816;DHT22;1923;48.154;11.536;2023-07-13T07:35:13;22.40;99.90
3816;DHT22;1923;48.154;11.536;2023-07-13T07:37:42;22.40;99.90
3816;DHT22;1923;48.154;11.536;2023-07-13T07:40:13;22.50;99.90
3816;DHT22;1923;48.154;11.536;2023-07-13T07:42:44;22.50;99.90
3816;DHT22;1923;48.154;11.536;2023-07-13T07:45:12;22.50;99.90
3816;DHT22;1923;48.154;11.536;2023-07-13T07:47:40;22.50;99.90
3816;DHT22;1923;48.154;11.536;2023-07-13T07:50:09;22.60;99.90
3816;DHT22;1923;48.154;11.536;2023-07-13T07:52:37;22.50;99.90
3816;DHT22;1923;48.154;11.536;2023-07-13T07:55:08;22.60;99.90
3816;DHT22;1923;48.154;11.536;2023-07-13T07:57:39;22.50;99.90
3816;DHT22;1923;48.154;11.536;2023-07-13T08:00:10;22.30;99.90
3816;DHT22;1923;48.154;11.536;2023-07-13T08:02:42;22.20;99.90
3816;DHT22;1923;48.154;11.536;2023-07-13T08:05:13;22.20;99.90
3816;DHT22;1923;48.154;11.536;2023-07-13T08:07:43;22.00;99.90
3816;DHT22;1923;48.154;11.536;2023-07-13T08:10:13;22.00;99.90
3816;DHT22;1923;48.154;11.536;2023-07-13T08:12:41;22.00;99.90
3816;DHT22;1923;48.154;11.536;2023-07-13T08:15:29;21.90;99.90
3816;DHT22;1923;48.154;11.536;2023-07-13T08:17:57;21.70;99.90
3816;DHT22;1923;48.154;11.536;2023-07-13T08:20:25;21.80;99.90
3816;DHT22;1923;48.154;11.536;2023-07-13T08:22:53;21.80;99.90
3816;DHT22;1923;48.154;11.536;2023-07-13T08:25:23;21.80;99.90
3816;DHT22;1923;48.154;11.536;2023-07-13T08:27:51;21.70;99.90
3816;DHT22;1923;48.154;11.536;2023-07-13T08:30:19;21.70;99.90
3816;DHT22;1923;48.154;11.536;2023-07-13T08:32:47;21.60;99.90
3816;DHT22;1923;48.154;11.536;2023-07-13T08:35:16;21.60;99.90
3816;DHT22;1923;48.154;11.536;2023-07-13T08:37:44;21.60;99.90
3816;DHT22;1923;48.154;11.536;2023-07-13T08:40:13;21.50;99.90
3816;DHT22;1923;48.154;11.536;2023-07-13T08:42:46;21.50;99.90
3816;DHT22;1923;48.154;11.536;2023-07-13T08:45:21;21.50;99.90
3816;DHT22;1923;48.154;11.536;2023-07-13T08:47:53;21.60;99.90
3816;DHT22;1923;48.154;11.536;2023-07-13T08:50:25;21.70;99.90
3816;DHT22;1923;48.154;11.536;2023-07-13T08:52:56;21.70;99.90
3816;DHT22;1923;48.154;11.536;2023-07-13T08:55:28;21.80;99.90
3816;DHT22;1923;48.154;11.536;2023-07-13T08:58:05;21.90;99.90
3816;DHT22;1923;48.154;11.536;2023-07-13T09:00:44;22.00;99.90
3816;DHT22;1923;48.154;11.536;2023-07-13T09:03:20;22.00;99.90
3816;DHT22;1923;48.154;11.536;2023-07-13T09:05:52;22.00;99.90
3816;DHT22;1923;48.154;11.536;2023-07-13T09:08:36;22.00;99.90
3816;DHT22;1923;48.154;11.536;2023-07-13T09:11:18;21.90;99.90
3816;DHT22;1923;48.154;11.536;2023-07-13T09:13:57;22.00;99.90
3816;DHT22;1923;48.154;11.536;2023-07-13T09:16:27;21.90;99.90
3816;DHT22;1923;48.154;11.536;2023-07-13T09:19:00;22.00;99.90
3816;DHT22;1923;48.154;11.536;2023-07-13T09:21:32;22.00;99.90
3816;DHT22;1923;48.154;11.536;2023-07-13T09:24:20;22.10;99.90
3816;DHT22;1923;48.154;11.536;2023-07-13T09:26:50;22.10;99.90
3816;DHT22;1923;48.154;11.536;2023-07-13T09:29:26;22.10;99.90
3816;DHT22;1923;48.154;11.536;2023-07-13T09:31:57;22.20;99.90
3816;DHT22;1923;48.154;11.536;2023-07-13T09:34:28;22.30;99.90
3816;DHT22;1923;48.154;11.536;2023-07-13T09:36:57;22.30;99.90
3816;DHT22;1923;48.154;11.536;2023-07-13T09:39:27;22.30;99.90
3816;DHT22;1923;48.154;11.536;2023-07-13T09:42:01;22.30;99.90
3816;DHT22;1923;48.154;11.536;2023-07-13T09:44:34;22.30;99.90
3816;DHT22;1923;48.154;11.536;2023-07-13T09:47:12;22.30;99.90
3816;DHT22;1923;48.154;11.536;2023-07-13T09:49:43;22.30;99.90
3816;DHT22;1923;48.154;11.536;2023-07-13T09:52:14;22.60;99.90
3816;DHT22;1923;48.154;11.536;2023-07-13T09:54:51;22.70;99.90
3816;DHT22;1923;48.154;11.536;2023-07-13T09:57:24;23.30;99.90
3816;DHT22;1923;48.154;11.536;2023-07-13T10:00:21;23.90;99.90
3816;DHT22;1923;48.154;11.536;2023-07-13T10:03:03;24.40;99.90
3816;DHT22;1923;48.154;11.536;2023-07-13T10:05:39;25.20;99.90
3816;DHT22;1923;48.154;11.536;2023-07-13T10:08:20;26.00;99.90
3816;DHT22;1923;48.154;11.536;2023-07-13T10:10:53;26.50;99.90
3816;DHT22;1923;48.154;11.536;2023-07-13T10:13:32;26.40;99.90
3816;DHT22;1923;48.154;11.536;2023-07-13T10:16:04;26.40;99.90
3816;DHT22;1923;48.154;11.536;2023-07-13T10:18:39;26.00;99.90
3816;DHT22;1923;48.154;11.536;2023-07-13T10:21:14;26.00;99.90
3816;DHT22;1923;48.154;11.536;2023-07-13T10:24:17;26.00;99.90
3816;DHT22;1923;48.154;11.536;2023-07-13T10:26:49;25.90;99.90
3816;DHT22;1923;48.154;11.536;2023-07-13T10:29:21;26.00;99.90
3816;DHT22;1923;48.154;11.536;2023-07-13T10:31:51;26.10;99.90
3816;DHT22;1923;48.154;11.536;2023-07-13T10:34:20;26.30;99.90
3816;DHT22;1923;48.154;11.536;2023-07-13T10:36:49;26.50;99.10
3816;DHT22;1923;48.154;11.536;2023-07-13T10:39:19;27.10;98.50
3816;DHT22;1923;48.154;11.536;2023-07-13T10:41:52;27.70;99.10
3816;DHT22;1923;48.154;11.536;2023-07-13T10:44:24;28.10;97.70
3816;DHT22;1923;48.154;11.536;2023-07-13T10:46:59;28.00;96.90
3816;DHT22;1923;48.154;11.536;2023-07-13T10:49:29;27.60;97.10
3816;DHT22;1923;48.154;11.536;2023-07-13T10:51:59;27.40;97.30
3816;DHT22;1923;48.154;11.536;2023-07-13T10:54:30;27.20;97.60
3816;DHT22;1923;48.154;11.536;2023-07-13T10:57:15;27.00;97.90
3816;DHT22;1923;48.154;11.536;2023-07-13T10:59:47;26.70;97.90
3816;DHT22;1923;48.154;11.536;2023-07-13T11:02:25;26.70;98.40
3816;DHT22;1923;48.154;11.536;2023-07-13T11:04:55;26.90;98.80
3816;DHT22;1923;48.154;11.536;2023-07-13T11:07:26;27.20;99.20
3816;DHT22;1923;48.154;11.536;2023-07-13T11:09:56;27.80;97.70
3816;DHT22;1923;48.154;11.536;2023-07-13T11:12:50;27.80;97.50
3816;DHT22;1923;48.154;11.536;2023-07-13T11:15:31;27.90;97.20
3816;DHT22;1923;48.154;11.536;2023-07-13T11:18:04;27.90;97.00
3816;DHT22;1923;48.154;11.536;2023-07-13T11:20:41;27.80;96.90
3816;DHT22;1923;48.154;11.536;2023-07-13T11:23:28;27.70;96.80
3816;DHT22;1923;48.154;11.536;2023-07-13T11:25:58;27.90;96.00
3816;DHT22;1923;48.154;11.536;2023-07-13T11:28:30;28.00;95.30
3816;DHT22;1923;48.154;11.536;2023-07-13T11:31:02;28.00;94.70
3816;DHT22;1923;48.154;11.536;2023-07-13T11:33:55;28.10;92.80
3816;DHT22;1923;48.154;11.536;2023-07-13T11:36:36;27.60;92.30
3816;DHT22;1923;48.154;11.536;2023-07-13T11:39:18;27.50;93.00
3816;DHT22;1923;48.154;11.536;2023-07-13T11:41:50;27.10;93.60
3816;DHT22;1923;48.154;11.536;2023-07-13T11:44:21;26.90;93.90
3816;DHT22;1923;48.154;11.536;2023-07-13T11:46:52;27.00;94.90
3816;DHT22;1923;48.154;11.536;2023-07-13T11:49:24;26.90;93.30
3816;DHT22;1923;48.154;11.536;2023-07-13T11:51:54;26.60;93.40
3816;DHT22;1923;48.154;11.536;2023-07-13T11:54:27;26.30;94.40
3816;DHT22;1923;48.154;11.536;2023-07-13T11:56:59;26.20;94.00
3816;DHT22;1923;48.154;11.536;2023-07-13T11:59:30;26.20;94.40
3816;DHT22;1923;48.154;11.536;2023-07-13T12:01:59;26.10;95.20
3816;DHT22;1923;48.154;11.536;2023-07-13T12:04:32;25.90;94.20
3816;DHT22;1923;48.154;11.536;2023-07-13T12:07:05;25.90;93.40
3816;DHT22;1923;48.154;11.536;2023-07-13T12:09:35;25.70;94.80
3816;DHT22;1923;48.154;11.536;2023-07-13T12:12:10;25.80;95.10
3816;DHT22;1923;48.154;11.536;2023-07-13T12:14:39;25.90;95.00
3816;DHT22;1923;48.154;11.536;2023-07-13T12:17:15;25.90;95.00
3816;DHT22;1923;48.154;11.536;2023-07-13T12:19:45;26.00;95.40
3816;DHT22;1923;48.154;11.536;2023-07-13T12:22:14;26.00;95.60
3816;DHT22;1923;48.154;11.536;2023-07-13T12:24:44;26.00;96.10
3816;DHT22;1923;48.154;11.536;2023-07-13T12:27:19;26.00;96.00
3816;DHT22;1923;48.154;11.536;2023-07-13T12:29:51;26.10;96.10
3816;DHT22;1923;48.154;11.536;2023-07-13T12:32:20;26.00;96.20
3816;DHT22;1923;48.154;11.536;2023-07-13T12:34:55;26.10;96.00
3816;DHT22;1923;48.154;11.536;2023-07-13T12:37:24;26.30;96.60
3816;DHT22;1923;48.154;11.536;2023-07-13T12:39:52;26.30;95.00
3816;DHT22;1923;48.154;11.536;2023-07-13T12:42:23;26.40;96.10
3816;DHT22;1923;48.154;11.536;2023-07-13T12:44:57;26.60;95.40
3816;DHT22;1923;48.154;11.536;2023-07-13T12:47:26;26.60;94.80
3816;DHT22;1923;48.154;11.536;2023-07-13T12:49:58;26.70;94.80
3816;DHT22;1923;48.154;11.536;2023-07-13T12:52:30;26.90;95.10
3816;DHT22;1923;48.154;11.536;2023-07-13T12:55:05;27.00;94.80
3816;DHT22;1923;48.154;11.536;2023-07-13T12:57:41;26.80;93.80
3816;DHT22;1923;48.154;11.536;2023-07-13T13:00:22;26.70;94.10
3816;DHT22;1923;48.154;11.536;2023-07-13T13:02:53;26.70;94.90
3816;DHT22;1923;48.154;11.536;2023-07-13T13:05:43;26.60;94.80
3816;DHT22;1923;48.154;11.536;2023-07-13T13:08:12;26.40;94.70
3816;DHT22;1923;48.154;11.536;2023-07-13T13:10:42;26.20;94.20
3816;DHT22;1923;48.154;11.536;2023-07-13T13:13:12;26.10;94.90
3816;DHT22;1923;48.154;11.536;2023-07-13T13:15:41;26.10;94.40
3816;DHT22;1923;48.154;11.536;2023-07-13T13:18:15;26.00;92.90
3816;DHT22;1923;48.154;11.536;2023-07-13T13:20:46;25.70;93.70
3816;DHT22;1923;48.154;11.536;2023-07-13T13:23:15;25.70;94.10
3816;DHT22;1923;48.154;11.536;2023-07-13T13:25:45;26.00;94.10
3816;DHT22;1923;48.154;11.536;2023-07-13T13:28:15;26.00;93.40
3816;DHT22;1923;48.154;11.536;2023-07-13T13:30:45;26.00;93.90
3816;DHT22;1923;48.154;11.536;2023-07-13T13:33:15;26.00;93.00
3816;DHT22;1923;48.154;11.536;2023-07-13T13:35:45;25.90;92.60
3816;DHT22;1923;48.154;11.536;2023-07-13T13:38:14;25.90;93.20
3816;DHT22;1923;48.154;11.536;2023-07-13T13:40:45;25.90;93.00
3816;DHT22;1923;48.154;11.536;2023-07-13T13:43:17;26.10;93.50
3816;DHT22;1923;48.154;11.536;2023-07-13T13:45:46;26.20;93.00
3816;DHT22;1923;48.154;11.536;2023-07-13T13:48:16;26.30;93.60
3816;DHT22;1923;48.154;11.536;2023-07-13T13:50:47;26.50;93.70
3816;DHT22;1923;48.154;11.536;2023-07-13T13:53:15;26.50;93.30
3816;DHT22;1923;48.154;11.536;2023-07-13T13:55:43;26.50;93.50
3816;DHT22;1923;48.154;11.536;2023-07-13T13:58:13;26.50;93.00
3816;DHT22;1923;48.154;11.536;2023-07-13T14:00:42;26.50;92.90
3816;DHT22;1923;48.154;11.536;2023-07-13T14:03:15;26.60;93.10
3816;DHT22;1923;48.154;11.536;2023-07-13T14:05:47;26.70;93.10
3816;DHT22;1923;48.154;11.536;2023-07-13T14:08:17;26.70;92.60
3816;DHT22;1923;48.154;11.536;2023-07-13T14:10:47;26.80;92.60
3816;DHT22;1923;48.154;11.536;2023-07-13T14:13:18;26.80;93.00
3816;DHT22;1923;48.154;11.536;2023-07-13T14:15:47;26.80;93.30
3816;DHT22;1923;48.154;11.536;2023-07-13T14:18:15;26.80;93.10
3816;DHT22;1923;48.154;11.536;2023-07-13T14:20:47;26.60;92.60
3816;DHT22;1923;48.154;11.536;2023-07-13T14:23:17;26.70;92.80
3816;DHT22;1923;48.154;11.536;2023-07-13T14:25:46;26.60;92.80
3816;DHT22;1923;48.154;11.536;2023-07-13T14:28:20;26.50;92.40
3816;DHT22;1923;48.154;11.536;2023-07-13T14:30:49;26.30;92.60
3816;DHT22;1923;48.154;11.536;2023-07-13T14:33:17;26.20;93.00
3816;DHT22;1923;48.154;11.536;2023-07-13T14:35:48;26.00;93.00
3816;DHT22;1923;48.154;11.536;2023-07-13T14:38:19;26.00;93.10
3816;DHT22;1923;48.154;11.536;2023-07-13T14:40:47;26.00;93.20
3816;DHT22;1923;48.154;11.536;2023-07-13T14:43:17;25.90;93.30
3816;DHT22;1923;48.154;11.536;2023-07-13T14:45:49;25.80;93.60
3816;DHT22;1923;48.154;11.536;2023-07-13T14:48:23;25.90;92.90
3816;DHT22;1923;48.154;11.536;2023-07-13T14:50:55;25.90;93.60
3816;DHT22;1923;48.154;11.536;2023-07-13T14:53:25;25.80;93.70
3816;DHT22;1923;48.154;11.536;2023-07-13T14:55:54;25.80;93.40
3816;DHT22;1923;48.154;11.536;2023-07-13T14:58:23;25.70;93.50
3816;DHT22;1923;48.154;11.536;2023-07-13T15:00:51;25.50;93.10
3816;DHT22;1923;48.154;11.536;2023-07-13T15:03:24;25.30;92.90
3816;DHT22;1923;48.154;11.536;2023-07-13T15:05:55;25.30;93.10
3816;DHT22;1923;48.154;11.536;2023-07-13T15:08:23;25.30;93.80
3816;DHT22;1923;48.154;11.536;2023-07-13T15:10:52;25.20;93.70
3816;DHT22;1923;48.154;11.536;2023-07-13T15:13:21;25.30;93.80
3816;DHT22;1923;48.154;11.536;2023-07-13T15:15:51;25.30;93.90
3816;DHT22;1923;48.154;11.536;2023-07-13T15:18:21;25.20;93.60
3816;DHT22;1923;48.154;11.536;2023-07-13T15:20:51;25.20;94.20
3816;DHT22;1923;48.154;11.536;2023-07-13T15:23:22;25.30;94.00
3816;DHT22;1923;48.154;11.536;2023-07-13T15:25:50;25.30;94.10
3816;DHT22;1923;48.154;11.536;2023-07-13T15:28:18;25.20;94.50
3816;DHT22;1923;48.154;11.536;2023-07-13T15:30:48;25.30;93.60
3816;DHT22;1923;48.154;11.536;2023-07-13T15:33:21;25.30;93.50
3816;DHT22;1923;48.154;11.536;2023-07-13T15:35:50;25.30;93.50
3816;DHT22;1923;48.154;11.536;2023-07-13T15:38:23;25.30;93.00
3816;DHT22;1923;48.154;11.536;2023-07-13T15:40:52;25.20;93.40
3816;DHT22;1923;48.154;11.536;2023-07-13T15:43:20;25.30;93.70
3816;DHT22;1923;48.154;11.536;2023-07-13T15:45:49;25.20;94.30
3816;DHT22;1923;48.154;11.536;2023-07-13T15:48:20;25.20;94.10
3816;DHT22;1923;48.154;11.536;2023-07-13T15:50:51;25.20;93.40
3816;DHT22;1923;48.154;11.536;2023-07-13T15:53:22;25.10;93.00
3816;DHT22;1923;48.154;11.536;2023-07-13T15:55:51;25.10;94.40
3816;DHT22;1923;48.154;11.536;2023-07-13T15:58:19;25.10;94.40
3816;DHT22;1923;48.154;11.536;2023-07-13T16:00:47;25.10;94.00
3816;DHT22;1923;48.154;11.536;2023-07-13T16:03:17;25.10;93.90
3816;DHT22;1923;48.154;11.536;2023-07-13T16:05:46;24.90;93.80